Карточка аэропорта URSS

Внимание!
Информация на этой странице в стадии наполнения.
Если вы не увидели какой-то информации, или заметили неточность - пожалуйста сообщите нам!
Спасибо!
Команда RU-STAFF
Название аэропортаСочи
Название аэропорта (англ.)Sochi
Превышение89 ft. (27.1 m.)
Координаты43°26.634', 39°56.55'
Высота перехода13000 ft
Эшелон переходаQNH>=977hPa: FL150; QNH<977hPa: FL160
Коды ответчика1060-1077
Зона ОрВДРостов-на-Дону РПИ (URRV)
Данные METARURSS 041130Z 16003MPS 130V200 9999 FEW017 OVC050 12/07 Q1017 R02/010070 R06/010070 NOSIG RMK R06/20003MPS MT OBSC QFE761
Проноз погоды (TAF)URSS 041056Z 0412/0512 17004G09MPS 9999 SCT016 OVC020 BECMG 0413/0415 28003G08MPS BECMG 0416/0417 05003G08MPS BKN013 BKN100 BECMG 0507/0508 18003G08MPS SCT020 SCT100
NOTAMshow/hide NOTAM
AWOS   TABLE

Информация о ВПП

ВПП Длина ВПП (м.) Покрытие Курс ВПП Частота ILS
022500Цементобетон22110.5
202500Цементобетон202 
062890Цементобетон58111.1
242890Цементобетон238 

Диспетчерские позиции

Позывной Наименование органа УВД Частота
URSS_TWRСочи-Старт121.200
URSS_R_APPСочи-Круг119.700
URSS_GNDСочи-Руление119.000
URSS_FM1119.000
URSS_DELСочи-Деливери132.700
URSS_APPСочи-Подход124.600



Спутниковое изображение